createdAt,value
2019-02-24T00:00:01.491Z,102349.39
2019-02-24T00:02:52.368Z,102343.27
2019-02-24T00:05:35.826Z,102347.17
2019-02-24T00:08:26.719Z,102346.77
2019-02-24T00:11:10.571Z,102346.77
2019-02-24T00:14:01.497Z,102345.47
2019-02-24T00:16:45.401Z,102345.89
2019-02-24T00:19:36.311Z,102354.14
2019-02-24T00:22:19.636Z,102351.52
2019-02-24T00:25:10.559Z,102351.95
2019-02-24T00:27:54.114Z,102357.19
2019-02-24T00:30:45.059Z,102367.59
2019-02-24T00:33:28.218Z,102363.20
2019-02-24T00:36:19.187Z,102365.37
2019-02-24T00:39:02.338Z,102374.94
2019-02-24T00:41:53.305Z,102375.81
2019-02-24T00:44:36.558Z,102375.79
2019-02-24T00:47:27.494Z,102372.74
2019-02-24T00:50:11.395Z,102370.15
2019-02-24T00:52:54.688Z,102366.38
2019-02-24T00:55:47.235Z,102365.98
2019-02-24T00:58:30.765Z,102357.70
2019-02-24T01:01:21.673Z,102353.78
2019-02-24T01:04:05.614Z,102351.17
2019-02-24T01:06:56.548Z,102361.20
2019-02-24T01:09:59.123Z,102352.45
2019-02-24T01:12:50.055Z,102352.88
2019-02-24T01:15:33.569Z,102349.85
2019-02-24T01:18:24.469Z,102343.31
2019-02-24T01:21:07.722Z,102341.12
2019-02-24T01:23:58.704Z,102331.06
2019-02-24T01:26:42.046Z,102336.30
2019-02-24T01:29:32.996Z,102338.48
2019-02-24T01:32:16.806Z,102339.33
2019-02-24T01:35:08.442Z,102347.19
2019-02-24T01:37:52.075Z,102340.20
2019-02-24T01:40:43.008Z,102340.22
2019-02-24T01:43:26.881Z,102335.86
2019-02-24T01:46:17.827Z,102334.09
2019-02-24T01:49:01.033Z,102335.39
2019-02-24T01:51:44.777Z,102335.40
2019-02-24T01:54:35.739Z,102331.03
2019-02-24T01:57:19.128Z,102332.76
2019-02-24T02:03:33.474Z,102325.31
2019-02-24T02:06:17.067Z,102323.52
2019-02-24T02:09:08.010Z,102325.61
2019-02-24T02:11:51.578Z,102322.50
2019-02-24T02:14:42.519Z,102320.25
2019-02-24T02:17:26.073Z,102325.06
2019-02-24T02:20:16.987Z,102322.88
2019-02-24T02:23:00.931Z,102323.73
2019-02-24T02:25:51.883Z,102327.61
2019-02-24T02:28:44.141Z,102324.50
2019-02-24T02:31:46.946Z,102326.23
2019-02-24T02:34:38.020Z,102320.02
2019-02-24T02:37:22.099Z,102318.64
2019-02-24T02:40:13.036Z,102319.04
2019-02-24T02:42:56.506Z,102306.42
2019-02-24T02:45:47.452Z,102304.69
2019-02-24T02:48:31.364Z,102302.07
2019-02-24T02:51:22.321Z,102301.58
2019-02-24T02:54:05.505Z,102302.35
2019-02-24T02:56:56.464Z,102299.58
2019-02-24T02:59:59.279Z,102301.23
2019-02-24T03:02:50.201Z,102292.89
2019-02-24T03:05:34.039Z,102305.48
2019-02-24T03:08:43.913Z,102303.15
2019-02-24T03:11:27.271Z,102298.67
2019-02-24T03:14:18.200Z,102303.31
2019-02-24T03:17:01.641Z,102304.86
2019-02-24T03:19:52.566Z,102306.53
2019-02-24T03:22:36.452Z,102306.53
2019-02-24T03:25:28.340Z,102309.62
2019-02-24T03:28:31.229Z,102306.53
2019-02-24T03:31:22.293Z,102311.70
2019-02-24T03:34:06.236Z,102314.71
2019-02-24T03:36:57.160Z,102323.33
2019-02-24T03:39:40.421Z,102318.38
2019-02-24T03:42:31.317Z,102323.14
2019-02-24T03:45:14.581Z,102316.13
2019-02-24T03:48:05.504Z,102321.70
2019-02-24T03:50:49.291Z,102320.39
2019-02-24T03:53:33.330Z,102325.27
2019-02-24T03:56:24.293Z,102328.95
2019-02-24T03:59:15.123Z,102329.55
2019-02-24T04:02:00.529Z,102328.23
2019-02-24T04:04:44.055Z,102333.83
2019-02-24T04:07:34.967Z,102336.48
2019-02-24T04:10:18.742Z,102333.69
2019-02-24T04:13:09.633Z,102334.03
2019-02-24T04:15:53.217Z,102332.73
2019-02-24T04:18:44.135Z,102336.52
2019-02-24T04:21:27.563Z,102339.81
2019-02-24T04:24:18.491Z,102341.05
2019-02-24T04:27:02.370Z,102341.39
2019-02-24T04:30:12.351Z,102345.66
2019-02-24T04:32:56.232Z,102343.50
2019-02-24T04:35:47.184Z,102347.01
2019-02-24T04:38:31.044Z,102348.31
2019-02-24T04:41:22.005Z,102357.36
2019-02-24T04:44:05.115Z,102353.86
2019-02-24T04:46:56.050Z,102352.37
2019-02-24T04:49:39.484Z,102353.03
2019-02-24T04:52:30.419Z,102357.16
2019-02-24T04:55:14.056Z,102357.48
2019-02-24T04:58:04.968Z,102360.48
2019-02-24T05:00:48.114Z,102353.50
2019-02-24T05:03:39.059Z,102347.95
2019-02-24T05:06:22.661Z,102349.39
2019-02-24T05:09:13.556Z,102354.06
2019-02-24T05:11:57.485Z,102346.58
2019-02-24T05:14:48.384Z,102343.02
2019-02-24T05:17:32.213Z,102346.92
2019-02-24T05:23:50.314Z,102351.13
2019-02-24T05:26:41.209Z,102358.80
2019-02-24T05:29:32.144Z,102350.88
2019-02-24T05:32:15.941Z,102355.59
2019-02-24T05:35:06.888Z,102351.63
2019-02-24T05:37:50.415Z,102358.19
2019-02-24T05:40:41.359Z,102360.33
2019-02-24T05:43:44.601Z,102362.09
2019-02-24T05:46:35.557Z,102366.48
2019-02-24T05:49:26.497Z,102369.53
2019-02-24T05:52:09.661Z,102366.00
2019-02-24T05:55:00.749Z,102355.58
2019-02-24T05:57:44.694Z,102352.49
2019-02-24T06:00:35.627Z,102347.48
2019-02-24T06:03:26.612Z,102344.77
2019-02-24T06:06:10.472Z,102333.21
2019-02-24T06:09:01.430Z,102333.98
2019-02-24T06:11:45.597Z,102334.23
2019-02-24T06:14:36.506Z,102334.92
2019-02-24T06:17:19.636Z,102332.72
2019-02-24T06:20:10.577Z,102334.02
2019-02-24T06:22:54.540Z,102329.22
2019-02-24T06:25:45.488Z,102332.77
2019-02-24T06:28:28.901Z,102327.86
2019-02-24T06:31:19.818Z,102332.17
2019-02-24T06:34:03.707Z,102328.78
2019-02-24T06:36:54.654Z,102336.59
2019-02-24T06:39:38.096Z,102340.84
2019-02-24T06:42:29.052Z,102341.18
2019-02-24T06:45:12.409Z,102342.48
2019-02-24T06:48:03.391Z,102343.94
2019-02-24T06:51:05.667Z,102342.21
2019-02-24T06:53:56.597Z,102344.82
2019-02-24T06:56:39.969Z,102347.02
2019-02-24T06:59:30.963Z,102347.28
2019-02-24T07:02:21.907Z,102351.92
2019-02-24T07:05:06.054Z,102355.34
2019-02-24T07:07:56.977Z,102354.29
2019-02-24T07:10:41.162Z,102351.44
2019-02-24T07:13:32.078Z,102354.22
2019-02-24T07:16:16.108Z,102350.10
2019-02-24T07:19:07.028Z,102346.41
2019-02-24T07:21:50.478Z,102347.84
2019-02-24T07:24:41.459Z,102341.59
2019-02-24T07:27:24.817Z,102333.11
2019-02-24T07:30:23.099Z,102332.83
2019-02-24T07:33:20.285Z,102329.39
2019-02-24T07:36:11.204Z,102322.38
2019-02-24T07:38:55.300Z,102323.98
2019-02-24T07:41:46.226Z,102326.98
2019-02-24T07:44:49.025Z,102320.93
2019-02-24T07:47:39.930Z,102329.78
2019-02-24T07:50:24.052Z,102334.20
2019-02-24T07:53:15.010Z,102339.20
2019-02-24T07:55:58.498Z,102329.75
2019-02-24T07:58:42.356Z,102347.04
2019-02-24T08:01:33.281Z,102353.03
2019-02-24T08:04:17.350Z,102356.08
2019-02-24T08:10:17.529Z,102366.60
2019-02-24T08:13:08.480Z,102374.12
2019-02-24T08:15:52.018Z,102378.67
2019-02-24T08:18:49.214Z,102374.74
2019-02-24T08:21:47.186Z,102373.05
2019-02-24T08:24:38.128Z,102382.03
2019-02-24T08:27:21.410Z,102392.85
2019-02-24T08:30:12.490Z,102388.80
2019-02-24T08:32:56.287Z,102390.13
2019-02-24T08:35:47.174Z,102392.17
2019-02-24T08:38:30.254Z,102400.98
2019-02-24T08:41:21.170Z,102407.13
2019-02-24T08:44:04.498Z,102406.47
2019-02-24T08:46:55.440Z,102411.59
2019-02-24T08:49:38.758Z,102416.70
2019-02-24T08:52:29.718Z,102418.28
2019-02-24T08:55:13.694Z,102424.20
2019-02-24T08:58:04.658Z,102430.64
2019-02-24T09:00:50.931Z,102431.25
2019-02-24T09:03:41.049Z,102437.64
2019-02-24T09:06:26.683Z,102435.88
2019-02-24T09:09:17.632Z,102449.61
2019-02-24T09:12:01.519Z,102442.94
2019-02-24T09:14:52.448Z,102439.69
2019-02-24T09:17:36.163Z,102439.22
2019-02-24T09:20:27.121Z,102433.37
2019-02-24T09:23:10.970Z,102429.63
2019-02-24T09:26:01.911Z,102429.89
2019-02-24T09:28:47.204Z,102427.89
2019-02-24T09:31:38.164Z,102423.65
2019-02-24T09:34:21.784Z,102425.95
2019-02-24T09:37:12.729Z,102426.22
2019-02-24T09:39:56.721Z,102428.86
2019-02-24T09:42:47.661Z,102432.96
2019-02-24T09:45:30.858Z,102437.04
2019-02-24T09:48:21.875Z,102432.63
2019-02-24T09:51:05.196Z,102431.03
2019-02-24T09:53:56.155Z,102436.77
2019-02-24T09:56:40.011Z,102430.07
2019-02-24T09:59:30.940Z,102441.48
2019-02-24T10:02:14.966Z,102445.00
2019-02-24T10:05:06.015Z,102454.59
2019-02-24T10:08:10.076Z,102462.98
2019-02-24T10:11:01.049Z,102464.06
2019-02-24T10:13:44.305Z,102462.08
2019-02-24T10:19:37.705Z,102448.48
2019-02-24T10:22:28.614Z,102454.41
2019-02-24T10:25:12.278Z,102448.86
2019-02-24T10:28:03.210Z,102449.25
2019-02-24T10:30:46.670Z,102451.76
2019-02-24T10:33:37.559Z,102456.03
2019-02-24T10:36:21.378Z,102453.92
2019-02-24T10:39:13.929Z,102447.13
2019-02-24T10:41:57.572Z,102446.37
2019-02-24T10:44:48.483Z,102443.47
2019-02-24T10:47:32.005Z,102445.65
2019-02-24T10:50:22.925Z,102445.87
2019-02-24T10:53:06.859Z,102443.13
2019-02-24T10:55:57.794Z,102444.84
2019-02-24T10:58:41.727Z,102448.97
2019-02-24T11:01:32.642Z,102440.27
2019-02-24T11:04:16.488Z,102448.47
2019-02-24T11:07:07.455Z,102441.18
2019-02-24T11:09:51.091Z,102432.83
2019-02-24T11:12:41.993Z,102421.06
2019-02-24T11:15:32.957Z,102413.59
2019-02-24T11:18:16.745Z,102411.05
2019-02-24T11:21:07.665Z,102419.00
2019-02-24T11:23:51.629Z,102418.28
2019-02-24T11:26:35.574Z,102418.43
2019-02-24T11:29:26.490Z,102421.74
2019-02-24T11:32:09.630Z,102427.16
2019-02-24T11:35:00.548Z,102428.33
2019-02-24T11:37:44.578Z,102429.48
2019-02-24T11:40:27.695Z,102433.91
2019-02-24T11:43:18.609Z,102433.02
2019-02-24T11:46:02.680Z,102431.97
2019-02-24T11:48:54.168Z,102424.55
2019-02-24T11:51:37.266Z,102424.67
2019-02-24T11:54:28.171Z,102426.84
2019-02-24T11:57:12.163Z,102421.70
2019-02-24T12:03:26.732Z,102408.83
2019-02-24T12:06:17.679Z,102400.39
2019-02-24T12:09:05.259Z,102409.80
2019-02-24T12:11:53.526Z,102405.44
2019-02-24T12:14:37.442Z,102402.63
2019-02-24T12:17:28.404Z,102399.73
2019-02-24T12:20:11.939Z,102399.60
2019-02-24T12:23:02.885Z,102410.67
2019-02-24T12:25:46.708Z,102407.02
2019-02-24T12:28:37.651Z,102401.62
2019-02-24T12:31:21.507Z,102398.92
2019-02-24T12:34:12.428Z,102394.80
2019-02-24T12:36:56.470Z,102391.73
2019-02-24T12:39:47.392Z,102391.63
2019-02-24T12:42:31.282Z,102391.44
2019-02-24T12:48:30.506Z,102394.46
2019-02-24T12:51:21.469Z,102383.98
2019-02-24T12:54:05.320Z,102379.45
2019-02-24T12:56:56.272Z,102379.37
2019-02-24T12:59:40.181Z,102376.09
2019-02-24T13:02:49.972Z,102368.78
2019-02-24T13:05:33.227Z,102372.41
2019-02-24T13:08:24.176Z,102371.35
2019-02-24T13:11:08.326Z,102363.21
2019-02-24T13:13:59.267Z,102360.52
2019-02-24T13:16:42.876Z,102352.70
2019-02-24T13:19:33.808Z,102355.36
2019-02-24T13:22:17.228Z,102353.79
2019-02-24T13:25:09.820Z,102349.44
2019-02-24T13:28:12.722Z,102347.66
2019-02-24T13:31:03.669Z,102335.50
2019-02-24T13:33:54.612Z,102332.28
2019-02-24T13:36:45.557Z,102338.07
2019-02-24T13:39:28.848Z,102332.78
2019-02-24T13:45:28.206Z,102330.17
2019-02-24T13:48:19.160Z,102332.40
2019-02-24T13:51:02.591Z,102330.84
2019-02-24T13:53:53.555Z,102334.03
2019-02-24T13:56:56.142Z,102330.19
2019-02-24T13:59:47.067Z,102328.75
2019-02-24T14:02:30.199Z,102329.48
2019-02-24T14:05:21.119Z,102329.36
2019-02-24T14:08:04.858Z,102326.89
2019-02-24T14:10:48.254Z,102326.13
2019-02-24T14:13:39.170Z,102324.55
2019-02-24T14:16:23.227Z,102317.18
2019-02-24T14:19:14.160Z,102311.64
2019-02-24T14:21:58.041Z,102302.62
2019-02-24T14:24:48.976Z,102305.58
2019-02-24T14:27:32.743Z,102308.88
2019-02-24T14:30:23.690Z,102304.98
2019-02-24T14:33:07.643Z,102311.30
2019-02-24T14:35:58.615Z,102315.75
2019-02-24T14:38:41.950Z,102312.13
2019-02-24T14:41:32.918Z,102311.02
2019-02-24T14:44:16.274Z,102311.89
2019-02-24T14:47:00.106Z,102313.11
2019-02-24T14:49:51.048Z,102320.81
2019-02-24T14:52:35.031Z,102325.36
2019-02-24T14:55:25.998Z,102318.59
2019-02-24T14:58:09.257Z,102326.34
2019-02-24T15:01:00.835Z,102323.52
2019-02-24T15:04:05.047Z,102329.80
2019-02-24T15:06:55.954Z,102329.82
2019-02-24T15:09:39.787Z,102326.77
2019-02-24T15:12:30.705Z,102326.16
2019-02-24T15:15:15.453Z,102329.19
2019-02-24T15:18:06.313Z,102332.05
2019-02-24T15:20:50.118Z,102333.62
2019-02-24T15:23:22.714Z,102324.89
2019-02-24T15:26:07.016Z,102329.70
2019-02-24T15:28:57.864Z,102330.66
2019-02-24T15:31:41.659Z,102326.84
2019-02-24T15:34:32.562Z,102330.75
2019-02-24T15:37:16.352Z,102330.31
2019-02-24T15:40:07.816Z,102329.86
2019-02-24T15:43:11.152Z,102334.49
2019-02-24T15:46:02.087Z,102335.23
2019-02-24T15:48:45.966Z,102336.94
2019-02-24T15:51:36.915Z,102336.06
2019-02-24T15:54:20.680Z,102339.02
2019-02-24T15:57:11.631Z,102331.73
2019-02-24T16:00:15.716Z,102332.86
2019-02-24T16:03:06.665Z,102328.37
2019-02-24T16:05:50.693Z,102330.42
2019-02-24T16:08:41.621Z,102329.13
2019-02-24T16:11:25.463Z,102340.14
2019-02-24T16:14:16.443Z,102335.75
2019-02-24T16:16:59.613Z,102333.23
2019-02-24T16:19:50.573Z,102330.09
2019-02-24T16:22:34.100Z,102334.64
2019-02-24T16:25:25.113Z,102335.11
2019-02-24T16:28:16.032Z,102332.77
2019-02-24T16:30:59.528Z,102335.41
2019-02-24T16:33:50.500Z,102335.66
2019-02-24T16:36:34.247Z,102325.78
2019-02-24T16:39:25.206Z,102336.19
2019-02-24T16:42:08.451Z,102340.16
2019-02-24T16:44:59.376Z,102335.91
2019-02-24T16:47:43.220Z,102334.91
2019-02-24T16:50:34.105Z,102346.61
2019-02-24T16:53:18.035Z,102344.61
2019-02-24T16:56:08.977Z,102347.47
2019-02-24T16:58:52.913Z,102342.98
2019-02-24T17:01:43.830Z,102348.42
2019-02-24T17:04:27.525Z,102347.23
2019-02-24T17:07:18.437Z,102351.42
2019-02-24T17:10:01.975Z,102350.96
2019-02-24T17:12:52.938Z,102351.45
2019-02-24T17:15:36.384Z,102356.45
2019-02-24T17:18:27.349Z,102359.77
2019-02-24T17:21:11.210Z,102359.42
2019-02-24T17:24:02.231Z,102357.02
2019-02-24T17:26:45.491Z,102360.98
2019-02-24T17:29:36.450Z,102356.62
2019-02-24T17:32:20.326Z,102360.59
2019-02-24T17:35:11.375Z,102369.05
2019-02-24T17:37:55.384Z,102368.44
2019-02-24T17:40:46.340Z,102370.69
2019-02-24T17:43:29.699Z,102377.12
2019-02-24T17:46:20.632Z,102381.89
2019-02-24T17:49:04.183Z,102379.98
2019-02-24T17:51:55.112Z,102382.52
2019-02-24T17:54:38.298Z,102380.44
2019-02-24T17:57:29.235Z,102375.37
2019-02-24T18:00:14.723Z,102379.49
2019-02-24T18:03:06.501Z,102380.91
2019-02-24T18:05:50.243Z,102379.48
2019-02-24T18:08:41.192Z,102380.19
2019-02-24T18:11:24.438Z,102378.67
2019-02-24T18:14:15.399Z,102380.50
2019-02-24T18:16:59.158Z,102375.86
2019-02-24T18:19:50.103Z,102375.72
2019-02-24T18:22:33.807Z,102369.70
2019-02-24T18:25:24.771Z,102369.17
2019-02-24T18:28:08.438Z,102366.39
2019-02-24T18:30:59.366Z,102372.26
2019-02-24T18:33:50.350Z,102368.55
2019-02-24T18:36:33.750Z,102364.28
2019-02-24T18:39:24.822Z,102362.84
2019-02-24T18:42:08.527Z,102361.18
2019-02-24T18:44:59.521Z,102359.56
2019-02-24T18:48:02.261Z,102354.94
2019-02-24T18:50:53.206Z,102357.38
2019-02-24T18:53:36.873Z,102353.47
2019-02-24T18:56:27.803Z,102346.99
2019-02-24T18:59:11.734Z,102346.70
2019-02-24T19:02:02.672Z,102344.72
2019-02-24T19:04:46.406Z,102350.59
2019-02-24T19:07:37.410Z,102346.80
2019-02-24T19:10:21.471Z,102349.14
2019-02-24T19:16:21.382Z,102352.67
2019-02-24T19:19:12.399Z,102351.21
2019-02-24T19:21:56.082Z,102357.55
2019-02-24T19:24:41.794Z,102358.78
2019-02-24T19:27:32.883Z,102361.44
2019-02-24T19:30:16.252Z,102366.48
2019-02-24T19:33:07.238Z,102364.92
2019-02-24T19:35:50.795Z,102363.64
2019-02-24T19:38:41.745Z,102367.25
2019-02-24T19:41:25.612Z,102359.88
2019-02-24T19:44:16.694Z,102361.06
2019-02-24T19:47:00.140Z,102360.77
2019-02-24T19:49:51.119Z,102365.14
2019-02-24T19:52:53.969Z,102364.95
2019-02-24T19:55:44.905Z,102368.53
2019-02-24T19:58:28.757Z,102372.83
2019-02-24T20:01:19.777Z,102373.13
2019-02-24T20:04:03.304Z,102374.23
2019-02-24T20:06:54.301Z,102374.16
2019-02-24T20:09:41.685Z,102366.93
2019-02-24T20:12:35.935Z,102367.92
2019-02-24T20:15:19.730Z,102378.11
2019-02-24T20:18:10.768Z,102388.73
2019-02-24T20:20:54.191Z,102383.93
2019-02-24T20:23:45.800Z,102382.98
2019-02-24T20:26:36.767Z,102382.48
2019-02-24T20:29:27.744Z,102382.95
2019-02-24T20:32:11.819Z,102383.59
2019-02-24T20:35:02.795Z,102377.59
2019-02-24T20:37:46.721Z,102377.59
2019-02-24T20:40:30.595Z,102376.72
2019-02-24T20:43:21.590Z,102376.34
2019-02-24T20:46:05.585Z,102379.02
2019-02-24T20:48:56.555Z,102380.71
2019-02-24T20:51:40.337Z,102387.43
2019-02-24T20:54:31.277Z,102383.09
2019-02-24T20:57:14.489Z,102387.52
2019-02-24T21:00:11.899Z,102394.68
2019-02-24T21:03:02.937Z,102390.75
2019-02-24T21:05:47.129Z,102393.00
2019-02-24T21:08:38.116Z,102393.94
2019-02-24T21:11:40.704Z,102395.17
2019-02-24T21:14:31.629Z,102392.13
2019-02-24T21:17:15.345Z,102393.83
2019-02-24T21:20:09.112Z,102394.77
2019-02-24T21:23:00.013Z,102387.31
2019-02-24T21:25:44.088Z,102386.44
2019-02-24T21:28:35.017Z,102383.67
2019-02-24T21:31:18.463Z,102383.80
2019-02-24T21:34:09.438Z,102390.95
2019-02-24T21:36:52.620Z,102388.02
2019-02-24T21:39:43.541Z,102394.27
2019-02-24T21:42:27.514Z,102400.43
2019-02-24T21:45:19.344Z,102403.51
2019-02-24T21:48:03.426Z,102398.77
2019-02-24T21:50:54.335Z,102400.12
2019-02-24T21:53:38.167Z,102401.06
2019-02-24T21:56:29.117Z,102399.91
2019-02-24T21:59:12.576Z,102396.91
2019-02-24T22:02:03.491Z,102389.59
2019-02-24T22:04:47.548Z,102391.92
2019-02-24T22:07:38.469Z,102389.34
2019-02-24T22:10:21.946Z,102382.34
2019-02-24T22:13:12.841Z,102385.89
2019-02-24T22:15:55.917Z,102386.36
2019-02-24T22:18:46.854Z,102386.81
2019-02-24T22:21:30.692Z,102387.30
2019-02-24T22:24:21.647Z,102389.09
2019-02-24T22:27:05.668Z,102395.69
2019-02-24T22:30:16.823Z,102397.45
2019-02-24T22:33:00.314Z,102404.95
2019-02-24T22:35:51.280Z,102403.64
2019-02-24T22:38:34.407Z,102407.59
2019-02-24T22:41:25.360Z,102410.69
2019-02-24T22:44:08.543Z,102415.03
2019-02-24T22:46:59.506Z,102415.50
2019-02-24T22:49:42.960Z,102413.30
2019-02-24T22:52:34.225Z,102413.33
2019-02-24T22:55:17.752Z,102421.18
2019-02-24T22:58:08.670Z,102422.06
2019-02-24T23:04:19.168Z,102423.81
2019-02-24T23:07:02.970Z,102426.44
2019-02-24T23:09:53.911Z,102431.27
2019-02-24T23:12:37.970Z,102433.45
2019-02-24T23:15:28.885Z,102439.56
2019-02-24T23:18:12.453Z,102442.18
2019-02-24T23:21:03.324Z,102440.88
2019-02-24T23:23:46.886Z,102438.69
2019-02-24T23:26:37.764Z,102439.13
2019-02-24T23:29:28.627Z,102436.95
2019-02-24T23:32:12.601Z,102436.49
2019-02-24T23:38:30.567Z,102443.91
2019-02-24T23:41:21.474Z,102446.97
2019-02-24T23:44:12.450Z,102447.39
2019-02-24T23:46:56.462Z,102444.78
2019-02-24T23:49:47.413Z,102450.03
2019-02-24T23:52:31.126Z,102454.86
2019-02-24T23:55:22.077Z,102453.55
2019-02-24T23:58:05.431Z,102451.78
